sensor_id;sensor_type;location;lat;lon;timestamp;pressure;altitude;pressure_sealevel;temperature;humidity
63339;BME280;47485;51.378;-1.342;2023-01-29T00:01:14;101691.90;;;4.81;31.70
63339;BME280;47485;51.378;-1.342;2023-01-29T00:03:41;101686.74;;;5.46;31.19
63339;BME280;47485;51.378;-1.342;2023-01-29T00:06:09;101684.51;;;5.46;31.12
63339;BME280;47485;51.378;-1.342;2023-01-29T00:08:36;101683.12;;;6.18;30.89
63339;BME280;47485;51.378;-1.342;2023-01-29T00:11:05;101674.98;;;6.22;30.60
63339;BME280;47485;51.378;-1.342;2023-01-29T00:13:32;101669.75;;;6.77;29.59
63339;BME280;47485;51.378;-1.342;2023-01-29T00:15:59;101669.68;;;7.48;29.43
63339;BME280;47485;51.378;-1.342;2023-01-29T00:18:27;101668.42;;;6.00;29.78
63339;BME280;47485;51.378;-1.342;2023-01-29T00:20:54;101663.86;;;6.34;29.11
63339;BME280;47485;51.378;-1.342;2023-01-29T00:23:22;101665.77;;;6.80;29.62
63339;BME280;47485;51.378;-1.342;2023-01-29T00:25:49;101664.89;;;6.52;29.69
63339;BME280;47485;51.378;-1.342;2023-01-29T00:28:16;101663.35;;;6.14;30.03
63339;BME280;47485;51.378;-1.342;2023-01-29T00:30:43;101662.31;;;6.86;30.33
63339;BME280;47485;51.378;-1.342;2023-01-29T00:33:11;101664.12;;;6.45;30.25
63339;BME280;47485;51.378;-1.342;2023-01-29T00:35:40;101661.59;;;6.85;29.93
63339;BME280;47485;51.378;-1.342;2023-01-29T00:38:08;101661.93;;;5.10;30.26
63339;BME280;47485;51.378;-1.342;2023-01-29T00:40:37;101659.30;;;6.85;29.16
63339;BME280;47485;51.378;-1.342;2023-01-29T00:43:03;101660.20;;;7.47;28.64
63339;BME280;47485;51.378;-1.342;2023-01-29T00:45:30;101660.96;;;7.73;28.82
63339;BME280;47485;51.378;-1.342;2023-01-29T00:47:57;101663.66;;;6.46;29.15
63339;BME280;47485;51.378;-1.342;2023-01-29T00:50:24;101662.40;;;5.72;29.11
63339;BME280;47485;51.378;-1.342;2023-01-29T00:52:51;101656.77;;;5.40;28.77
63339;BME280;47485;51.378;-1.342;2023-01-29T00:55:18;101655.49;;;8.38;26.55
63339;BME280;47485;51.378;-1.342;2023-01-29T00:57:45;101653.06;;;6.60;27.08
63339;BME280;47485;51.378;-1.342;2023-01-29T01:00:15;101648.39;;;8.74;26.83
63339;BME280;47485;51.378;-1.342;2023-01-29T01:02:43;101643.09;;;7.95;26.74
63339;BME280;47485;51.378;-1.342;2023-01-29T01:05:12;101648.50;;;8.06;27.41
63339;BME280;47485;51.378;-1.342;2023-01-29T01:07:40;101653.90;;;8.05;27.43
63339;BME280;47485;51.378;-1.342;2023-01-29T01:10:09;101653.24;;;6.25;28.42
63339;BME280;47485;51.378;-1.342;2023-01-29T01:12:37;101642.98;;;6.28;28.15
63339;BME280;47485;51.378;-1.342;2023-01-29T01:15:05;101634.72;;;7.68;27.37
63339;BME280;47485;51.378;-1.342;2023-01-29T01:17:32;101628.52;;;6.61;27.49
63339;BME280;47485;51.378;-1.342;2023-01-29T01:19:59;101628.42;;;6.27;27.84
63339;BME280;47485;51.378;-1.342;2023-01-29T01:22:26;101625.79;;;8.75;26.27
63339;BME280;47485;51.378;-1.342;2023-01-29T01:24:53;101628.23;;;8.86;26.43
63339;BME280;47485;51.378;-1.342;2023-01-29T01:27:21;101625.74;;;8.58;26.68
63339;BME280;47485;51.378;-1.342;2023-01-29T01:29:47;101621.91;;;8.54;26.77
63339;BME280;47485;51.378;-1.342;2023-01-29T01:32:14;101622.03;;;9.36;26.44
63339;BME280;47485;51.378;-1.342;2023-01-29T01:34:41;101623.67;;;6.83;27.01
63339;BME280;47485;51.378;-1.342;2023-01-29T01:37:08;101627.57;;;7.59;26.80
63339;BME280;47485;51.378;-1.342;2023-01-29T01:39:35;101628.46;;;8.41;27.30
63339;BME280;47485;51.378;-1.342;2023-01-29T01:42:02;101624.90;;;6.96;28.05
63339;BME280;47485;51.378;-1.342;2023-01-29T01:45:04;101619.20;;;7.31;28.33
63339;BME280;47485;51.378;-1.342;2023-01-29T01:47:35;101613.47;;;8.14;27.20
63339;BME280;47485;51.378;-1.342;2023-01-29T01:50:07;101619.01;;;7.63;27.23
63339;BME280;47485;51.378;-1.342;2023-01-29T01:52:39;101623.49;;;7.39;27.51
63339;BME280;47485;51.378;-1.342;2023-01-29T01:55:08;101624.06;;;8.51;27.34
63339;BME280;47485;51.378;-1.342;2023-01-29T01:57:38;101625.56;;;7.90;27.04
63339;BME280;47485;51.378;-1.342;2023-01-29T02:00:10;101634.97;;;7.93;27.57
63339;BME280;47485;51.378;-1.342;2023-01-29T02:02:39;101636.22;;;6.99;28.65
63339;BME280;47485;51.378;-1.342;2023-01-29T02:05:07;101636.05;;;6.77;29.20
63339;BME280;47485;51.378;-1.342;2023-01-29T02:07:39;101636.93;;;7.10;29.92
63339;BME280;47485;51.378;-1.342;2023-01-29T02:10:10;101631.39;;;6.42;30.12
63339;BME280;47485;51.378;-1.342;2023-01-29T02:12:39;101639.35;;;5.90;30.71
63339;BME280;47485;51.378;-1.342;2023-01-29T02:15:07;101636.86;;;4.91;31.20
63339;BME280;47485;51.378;-1.342;2023-01-29T02:17:34;101635.87;;;5.54;30.71
63339;BME280;47485;51.378;-1.342;2023-01-29T02:20:07;101641.78;;;3.44;32.74
63339;BME280;47485;51.378;-1.342;2023-01-29T02:22:50;101643.59;;;3.11;32.62
63339;BME280;47485;51.378;-1.342;2023-01-29T02:25:40;101646.29;;;5.15;32.49
63339;BME280;47485;51.378;-1.342;2023-01-29T02:28:18;101638.83;;;4.87;32.16
63339;BME280;47485;51.378;-1.342;2023-01-29T02:30:55;101632.98;;;4.99;33.32
63339;BME280;47485;51.378;-1.342;2023-01-29T02:33:31;101633.58;;;4.17;34.12
63339;BME280;47485;51.378;-1.342;2023-01-29T02:36:11;101636.21;;;3.65;35.33
63339;BME280;47485;51.378;-1.342;2023-01-29T02:38:44;101634.34;;;3.92;36.60
63339;BME280;47485;51.378;-1.342;2023-01-29T02:41:15;101633.83;;;2.28;37.20
63339;BME280;47485;51.378;-1.342;2023-01-29T02:43:48;101633.59;;;3.43;35.58
63339;BME280;47485;51.378;-1.342;2023-01-29T02:46:24;101635.10;;;3.60;35.29
63339;BME280;47485;51.378;-1.342;2023-01-29T02:48:58;101637.32;;;3.07;34.71
63339;BME280;47485;51.378;-1.342;2023-01-29T02:51:33;101631.61;;;5.61;33.41
63339;BME280;47485;51.378;-1.342;2023-01-29T02:54:05;101632.07;;;4.31;32.69
63339;BME280;47485;51.378;-1.342;2023-01-29T02:56:37;101625.57;;;5.01;32.76
63339;BME280;47485;51.378;-1.342;2023-01-29T02:59:08;101621.67;;;5.85;31.11
63339;BME280;47485;51.378;-1.342;2023-01-29T03:01:42;101621.26;;;5.37;31.80
63339;BME280;47485;51.378;-1.342;2023-01-29T03:04:17;101613.21;;;5.96;31.57
63339;BME280;47485;51.378;-1.342;2023-01-29T03:06:48;101612.80;;;5.29;32.04
63339;BME280;47485;51.378;-1.342;2023-01-29T03:09:21;101605.01;;;4.96;32.27
63339;BME280;47485;51.378;-1.342;2023-01-29T03:11:52;101601.79;;;4.90;32.23
63339;BME280;47485;51.378;-1.342;2023-01-29T03:14:25;101602.13;;;3.99;32.32
63339;BME280;47485;51.378;-1.342;2023-01-29T03:16:55;101594.55;;;3.11;32.05
63339;BME280;47485;51.378;-1.342;2023-01-29T03:19:28;101589.24;;;4.48;30.61
63339;BME280;47485;51.378;-1.342;2023-01-29T03:21:58;101585.53;;;4.15;30.09
63339;BME280;47485;51.378;-1.342;2023-01-29T03:24:34;101575.34;;;5.68;28.76
63339;BME280;47485;51.378;-1.342;2023-01-29T03:27:07;101568.07;;;4.76;28.79
63339;BME280;47485;51.378;-1.342;2023-01-29T03:29:37;101564.73;;;4.41;28.19
63339;BME280;47485;51.378;-1.342;2023-01-29T03:32:12;101561.22;;;6.84;27.27
63339;BME280;47485;51.378;-1.342;2023-01-29T03:34:43;101552.12;;;6.52;26.59
63339;BME280;47485;51.378;-1.342;2023-01-29T03:37:16;101547.43;;;6.65;26.84
63339;BME280;47485;51.378;-1.342;2023-01-29T03:39:44;101545.69;;;7.24;25.31
63339;BME280;47485;51.378;-1.342;2023-01-29T03:42:17;101548.10;;;6.98;25.83
63339;BME280;47485;51.378;-1.342;2023-01-29T03:44:54;101552.35;;;7.13;25.12
63339;BME280;47485;51.378;-1.342;2023-01-29T03:47:27;101551.73;;;7.46;24.82
63339;BME280;47485;51.378;-1.342;2023-01-29T03:50:00;101545.74;;;6.44;25.64
63339;BME280;47485;51.378;-1.342;2023-01-29T03:52:39;101543.37;;;6.01;25.93
63339;BME280;47485;51.378;-1.342;2023-01-29T03:55:14;101541.90;;;6.06;26.24
63339;BME280;47485;51.378;-1.342;2023-01-29T03:57:48;101541.11;;;6.35;25.41
63339;BME280;47485;51.378;-1.342;2023-01-29T04:00:20;101541.74;;;7.58;25.21
63339;BME280;47485;51.378;-1.342;2023-01-29T04:02:51;101543.26;;;7.28;24.84
63339;BME280;47485;51.378;-1.342;2023-01-29T04:05:24;101538.64;;;8.23;24.82
63339;BME280;47485;51.378;-1.342;2023-01-29T04:07:58;101534.65;;;7.16;25.13
63339;BME280;47485;51.378;-1.342;2023-01-29T04:10:28;101536.37;;;5.97;24.27
63339;BME280;47485;51.378;-1.342;2023-01-29T04:12:59;101532.85;;;6.61;24.94
63339;BME280;47485;51.378;-1.342;2023-01-29T04:15:30;101525.69;;;6.34;25.64
63339;BME280;47485;51.378;-1.342;2023-01-29T04:18:00;101528.02;;;7.18;25.31
63339;BME280;47485;51.378;-1.342;2023-01-29T04:20:28;101524.27;;;7.68;25.02
63339;BME280;47485;51.378;-1.342;2023-01-29T04:22:55;101522.90;;;5.35;25.55
63339;BME280;47485;51.378;-1.342;2023-01-29T04:25:23;101523.11;;;6.57;25.60
63339;BME280;47485;51.378;-1.342;2023-01-29T04:27:58;101516.29;;;7.23;25.77
63339;BME280;47485;51.378;-1.342;2023-01-29T04:30:33;101517.90;;;6.53;25.87
63339;BME280;47485;51.378;-1.342;2023-01-29T04:33:10;101517.89;;;7.16;25.75
63339;BME280;47485;51.378;-1.342;2023-01-29T04:35:53;101519.95;;;5.79;27.17
63339;BME280;47485;51.378;-1.342;2023-01-29T04:38:31;101521.30;;;5.72;28.06
63339;BME280;47485;51.378;-1.342;2023-01-29T04:41:05;101523.45;;;6.08;29.72
63339;BME280;47485;51.378;-1.342;2023-01-29T04:43:40;101523.24;;;5.55;29.89
63339;BME280;47485;51.378;-1.342;2023-01-29T04:46:18;101520.00;;;5.08;30.25
63339;BME280;47485;51.378;-1.342;2023-01-29T04:48:59;101523.06;;;5.02;30.43
63339;BME280;47485;51.378;-1.342;2023-01-29T04:51:34;101519.80;;;3.62;31.31
63339;BME280;47485;51.378;-1.342;2023-01-29T04:54:08;101520.01;;;5.23;31.80
63339;BME280;47485;51.378;-1.342;2023-01-29T04:56:45;101523.09;;;4.13;32.64
63339;BME280;47485;51.378;-1.342;2023-01-29T04:59:18;101524.73;;;2.79;35.17
63339;BME280;47485;51.378;-1.342;2023-01-29T05:01:47;101521.67;;;3.77;34.54
63339;BME280;47485;51.378;-1.342;2023-01-29T05:04:17;101523.86;;;4.11;35.72
63339;BME280;47485;51.378;-1.342;2023-01-29T05:06:45;101520.22;;;3.58;35.44
63339;BME280;47485;51.378;-1.342;2023-01-29T05:09:15;101517.50;;;4.68;34.49
63339;BME280;47485;51.378;-1.342;2023-01-29T05:11:45;101514.75;;;3.67;35.08
63339;BME280;47485;51.378;-1.342;2023-01-29T05:14:16;101510.63;;;3.58;34.64
63339;BME280;47485;51.378;-1.342;2023-01-29T05:16:45;101502.32;;;3.62;34.33
63339;BME280;47485;51.378;-1.342;2023-01-29T05:19:14;101494.06;;;3.69;33.43
63339;BME280;47485;51.378;-1.342;2023-01-29T05:21:44;101494.95;;;3.13;34.19
63339;BME280;47485;51.378;-1.342;2023-01-29T05:24:14;101485.71;;;3.92;33.57
63339;BME280;47485;51.378;-1.342;2023-01-29T05:26:42;101485.19;;;4.92;32.96
63339;BME280;47485;51.378;-1.342;2023-01-29T05:29:09;101485.54;;;3.69;33.75
63339;BME280;47485;51.378;-1.342;2023-01-29T05:31:37;101483.95;;;4.40;33.49
63339;BME280;47485;51.378;-1.342;2023-01-29T05:34:03;101485.56;;;4.24;33.67
63339;BME280;47485;51.378;-1.342;2023-01-29T05:36:30;101486.01;;;3.26;35.38
63339;BME280;47485;51.378;-1.342;2023-01-29T05:38:56;101483.87;;;2.04;35.19
63339;BME280;47485;51.378;-1.342;2023-01-29T05:41:23;101476.91;;;3.28;34.85
63339;BME280;47485;51.378;-1.342;2023-01-29T05:43:50;101476.69;;;4.43;34.57
63339;BME280;47485;51.378;-1.342;2023-01-29T05:46:17;101475.51;;;4.09;34.41
63339;BME280;47485;51.378;-1.342;2023-01-29T05:48:44;101478.24;;;2.75;35.72
63339;BME280;47485;51.378;-1.342;2023-01-29T05:51:11;101473.77;;;3.77;35.95
63339;BME280;47485;51.378;-1.342;2023-01-29T05:53:38;101469.84;;;2.17;35.25
63339;BME280;47485;51.378;-1.342;2023-01-29T05:56:06;101465.43;;;5.73;33.69
63339;BME280;47485;51.378;-1.342;2023-01-29T05:58:33;101464.45;;;5.10;33.26
63339;BME280;47485;51.378;-1.342;2023-01-29T06:01:08;101459.34;;;5.25;33.56
63339;BME280;47485;51.378;-1.342;2023-01-29T06:03:34;101453.55;;;4.51;33.53
63339;BME280;47485;51.378;-1.342;2023-01-29T06:06:01;101460.18;;;3.71;34.58
63339;BME280;47485;51.378;-1.342;2023-01-29T06:08:28;101454.87;;;3.83;34.01
63339;BME280;47485;51.378;-1.342;2023-01-29T06:10:55;101451.53;;;4.56;33.74
63339;BME280;47485;51.378;-1.342;2023-01-29T06:13:22;101445.47;;;4.99;32.85
63339;BME280;47485;51.378;-1.342;2023-01-29T06:15:48;101442.38;;;4.42;33.27
63339;BME280;47485;51.378;-1.342;2023-01-29T06:18:17;101437.94;;;4.23;33.58
63339;BME280;47485;51.378;-1.342;2023-01-29T06:20:44;101437.38;;;4.40;32.84
63339;BME280;47485;51.378;-1.342;2023-01-29T06:23:12;101439.21;;;5.16;33.14
63339;BME280;47485;51.378;-1.342;2023-01-29T06:25:39;101437.93;;;4.47;32.62
63339;BME280;47485;51.378;-1.342;2023-01-29T06:28:07;101435.57;;;3.54;32.84
63339;BME280;47485;51.378;-1.342;2023-01-29T06:30:34;101426.69;;;6.27;31.32
63339;BME280;47485;51.378;-1.342;2023-01-29T06:33:01;101428.31;;;6.41;30.45
63339;BME280;47485;51.378;-1.342;2023-01-29T06:35:28;101430.56;;;4.91;31.23
63339;BME280;47485;51.378;-1.342;2023-01-29T06:37:55;101430.66;;;6.60;30.31
63339;BME280;47485;51.378;-1.342;2023-01-29T06:40:22;101428.31;;;6.43;30.31
63339;BME280;47485;51.378;-1.342;2023-01-29T06:42:48;101423.75;;;6.17;30.93
63339;BME280;47485;51.378;-1.342;2023-01-29T06:45:15;101418.55;;;5.56;31.20
63339;BME280;47485;51.378;-1.342;2023-01-29T06:47:42;101421.20;;;3.41;33.10
63339;BME280;47485;51.378;-1.342;2023-01-29T06:50:09;101424.10;;;4.76;33.01
63339;BME280;47485;51.378;-1.342;2023-01-29T06:52:37;101421.33;;;4.60;33.21
63339;BME280;47485;51.378;-1.342;2023-01-29T06:55:05;101428.26;;;4.46;34.23
63339;BME280;47485;51.378;-1.342;2023-01-29T06:57:32;101430.08;;;3.48;35.36
63339;BME280;47485;51.378;-1.342;2023-01-29T06:59:58;101432.52;;;3.87;35.74
63339;BME280;47485;51.378;-1.342;2023-01-29T07:02:25;101435.26;;;3.00;36.65
63339;BME280;47485;51.378;-1.342;2023-01-29T07:04:53;101437.18;;;1.80;37.53
63339;BME280;47485;51.378;-1.342;2023-01-29T07:07:20;101442.21;;;1.21;37.62
63339;BME280;47485;51.378;-1.342;2023-01-29T07:09:47;101442.32;;;3.60;35.94
63339;BME280;47485;51.378;-1.342;2023-01-29T07:12:15;101442.17;;;3.42;36.40
63339;BME280;47485;51.378;-1.342;2023-01-29T07:14:42;101440.27;;;2.57;36.63
63339;BME280;47485;51.378;-1.342;2023-01-29T07:17:08;101435.41;;;2.94;36.46
63339;BME280;47485;51.378;-1.342;2023-01-29T07:19:35;101432.88;;;2.22;35.82
63339;BME280;47485;51.378;-1.342;2023-01-29T07:22:01;101428.40;;;3.51;34.66
63339;BME280;47485;51.378;-1.342;2023-01-29T07:24:28;101425.45;;;4.29;34.34
63339;BME280;47485;51.378;-1.342;2023-01-29T07:26:55;101420.55;;;3.46;34.33
63339;BME280;47485;51.378;-1.342;2023-01-29T07:29:22;101419.82;;;4.05;32.91
63339;BME280;47485;51.378;-1.342;2023-01-29T07:31:49;101427.63;;;2.33;34.89
63339;BME280;47485;51.378;-1.342;2023-01-29T07:34:16;101422.97;;;4.56;32.89
63339;BME280;47485;51.378;-1.342;2023-01-29T07:36:43;101423.97;;;4.03;32.88
63339;BME280;47485;51.378;-1.342;2023-01-29T07:39:09;101429.40;;;4.54;34.12
63339;BME280;47485;51.378;-1.342;2023-01-29T07:41:36;101428.70;;;3.63;35.58
63339;BME280;47485;51.378;-1.342;2023-01-29T07:44:03;101433.54;;;2.73;36.10
63339;BME280;47485;51.378;-1.342;2023-01-29T07:46:30;101436.09;;;3.92;36.34
63339;BME280;47485;51.378;-1.342;2023-01-29T07:48:57;101438.91;;;2.78;37.18
63339;BME280;47485;51.378;-1.342;2023-01-29T07:51:24;101436.30;;;2.45;37.19
63339;BME280;47485;51.378;-1.342;2023-01-29T07:53:51;101437.45;;;3.48;36.25
63339;BME280;47485;51.378;-1.342;2023-01-29T07:56:18;101433.90;;;2.51;36.63
63339;BME280;47485;51.378;-1.342;2023-01-29T07:58:46;101431.81;;;2.56;38.32
63339;BME280;47485;51.378;-1.342;2023-01-29T08:01:14;101435.14;;;3.48;38.52
63339;BME280;47485;51.378;-1.342;2023-01-29T08:03:41;101431.21;;;3.23;38.24
63339;BME280;47485;51.378;-1.342;2023-01-29T08:06:08;101431.78;;;3.25;37.32
63339;BME280;47485;51.378;-1.342;2023-01-29T08:08:35;101429.68;;;3.32;35.81
63339;BME280;47485;51.378;-1.342;2023-01-29T08:11:03;101428.10;;;4.10;35.77
63339;BME280;47485;51.378;-1.342;2023-01-29T08:13:30;101423.92;;;3.14;35.69
63339;BME280;47485;51.378;-1.342;2023-01-29T08:15:59;101422.55;;;3.59;36.32
63339;BME280;47485;51.378;-1.342;2023-01-29T08:18:26;101422.18;;;3.10;35.84
63339;BME280;47485;51.378;-1.342;2023-01-29T08:20:58;101418.90;;;4.93;36.10
63339;BME280;47485;51.378;-1.342;2023-01-29T08:23:25;101411.23;;;4.21;35.21
63339;BME280;47485;51.378;-1.342;2023-01-29T08:25:52;101411.74;;;3.75;35.47
63339;BME280;47485;51.378;-1.342;2023-01-29T08:28:19;101409.89;;;0.74;37.97
63339;BME280;47485;51.378;-1.342;2023-01-29T08:30:45;101407.05;;;4.25;34.96
63339;BME280;47485;51.378;-1.342;2023-01-29T08:33:13;101409.65;;;5.12;34.34
63339;BME280;47485;51.378;-1.342;2023-01-29T08:35:41;101407.88;;;2.84;34.98
63339;BME280;47485;51.378;-1.342;2023-01-29T08:38:08;101407.74;;;5.11;33.90
63339;BME280;47485;51.378;-1.342;2023-01-29T08:40:34;101407.35;;;5.21;34.30
63339;BME280;47485;51.378;-1.342;2023-01-29T08:43:03;101410.90;;;5.35;35.61
63339;BME280;47485;51.378;-1.342;2023-01-29T08:45:30;101416.36;;;4.11;37.06
63339;BME280;47485;51.378;-1.342;2023-01-29T08:47:59;101412.76;;;4.12;36.65
63339;BME280;47485;51.378;-1.342;2023-01-29T08:50:25;101409.59;;;3.14;37.57
63339;BME280;47485;51.378;-1.342;2023-01-29T08:52:56;101409.74;;;3.14;37.89
63339;BME280;47485;51.378;-1.342;2023-01-29T08:55:23;101410.91;;;3.79;36.97
63339;BME280;47485;51.378;-1.342;2023-01-29T08:57:50;101413.67;;;4.33;37.64
63339;BME280;47485;51.378;-1.342;2023-01-29T09:00:17;101415.22;;;2.95;37.73
63339;BME280;47485;51.378;-1.342;2023-01-29T09:02:44;101419.51;;;2.92;37.85
63339;BME280;47485;51.378;-1.342;2023-01-29T09:05:11;101419.54;;;3.86;39.06
63339;BME280;47485;51.378;-1.342;2023-01-29T09:07:38;101421.72;;;1.60;40.73
63339;BME280;47485;51.378;-1.342;2023-01-29T09:10:07;101422.95;;;1.96;39.14
63339;BME280;47485;51.378;-1.342;2023-01-29T09:12:34;101417.91;;;3.54;37.03
63339;BME280;47485;51.378;-1.342;2023-01-29T09:15:01;101427.13;;;3.44;38.32
63339;BME280;47485;51.378;-1.342;2023-01-29T09:17:28;101426.81;;;3.51;37.91
63339;BME280;47485;51.378;-1.342;2023-01-29T09:19:55;101421.16;;;3.43;36.55
63339;BME280;47485;51.378;-1.342;2023-01-29T09:22:21;101425.98;;;4.64;38.51
63339;BME280;47485;51.378;-1.342;2023-01-29T09:24:48;101426.75;;;3.41;38.99
63339;BME280;47485;51.378;-1.342;2023-01-29T09:27:15;101423.09;;;3.23;40.21
63339;BME280;47485;51.378;-1.342;2023-01-29T09:29:42;101425.19;;;3.16;41.28
63339;BME280;47485;51.378;-1.342;2023-01-29T09:32:09;101424.51;;;3.19;39.10
63339;BME280;47485;51.378;-1.342;2023-01-29T09:34:36;101419.71;;;3.60;39.26
63339;BME280;47485;51.378;-1.342;2023-01-29T09:37:03;101419.81;;;2.96;39.17
63339;BME280;47485;51.378;-1.342;2023-01-29T09:39:29;101414.26;;;3.61;39.25
63339;BME280;47485;51.378;-1.342;2023-01-29T09:42:01;101414.27;;;2.94;38.57
63339;BME280;47485;51.378;-1.342;2023-01-29T09:44:45;101414.04;;;2.34;39.53
63339;BME280;47485;51.378;-1.342;2023-01-29T09:47:15;101404.35;;;4.62;37.46
63339;BME280;47485;51.378;-1.342;2023-01-29T09:49:45;101407.82;;;4.38;38.77
63339;BME280;47485;51.378;-1.342;2023-01-29T09:52:17;101407.25;;;3.68;38.83
63339;BME280;47485;51.378;-1.342;2023-01-29T09:54:51;101402.32;;;3.14;39.54
63339;BME280;47485;51.378;-1.342;2023-01-29T09:57:24;101392.03;;;2.95;38.55
63339;BME280;47485;51.378;-1.342;2023-01-29T09:59:53;101397.76;;;4.36;40.17
63339;BME280;47485;51.378;-1.342;2023-01-29T10:02:34;101400.17;;;3.74;38.98
63339;BME280;47485;51.378;-1.342;2023-01-29T10:05:20;101398.12;;;4.23;40.49
63339;BME280;47485;51.378;-1.342;2023-01-29T10:08:06;101399.53;;;2.75;43.39
63339;BME280;47485;51.378;-1.342;2023-01-29T10:10:47;101398.62;;;2.60;42.84
63339;BME280;47485;51.378;-1.342;2023-01-29T10:13:24;101400.29;;;3.07;40.31
63339;BME280;47485;51.378;-1.342;2023-01-29T10:16:13;101400.66;;;3.64;41.16
63339;BME280;47485;51.378;-1.342;2023-01-29T10:18:56;101395.54;;;3.31;40.35
63339;BME280;47485;51.378;-1.342;2023-01-29T10:22:43;101391.43;;;4.56;38.12
63339;BME280;47485;51.378;-1.342;2023-01-29T10:25:18;101390.74;;;5.33;37.37
63339;BME280;47485;51.378;-1.342;2023-01-29T10:27:48;101390.63;;;5.11;38.06
63339;BME280;47485;51.378;-1.342;2023-01-29T10:30:22;101393.02;;;3.72;40.89
63339;BME280;47485;51.378;-1.342;2023-01-29T10:32:54;101391.77;;;3.63;42.07
63339;BME280;47485;51.378;-1.342;2023-01-29T10:35:26;101388.70;;;4.42;41.85
63339;BME280;47485;51.378;-1.342;2023-01-29T10:37:55;101382.72;;;3.72;41.51
63339;BME280;47485;51.378;-1.342;2023-01-29T10:40:32;101380.97;;;2.78;41.70
63339;BME280;47485;51.378;-1.342;2023-01-29T10:43:07;101376.71;;;4.08;41.77
63339;BME280;47485;51.378;-1.342;2023-01-29T10:45:44;101369.99;;;3.89;40.48
63339;BME280;47485;51.378;-1.342;2023-01-29T10:48:33;101369.96;;;5.08;40.42
63339;BME280;47485;51.378;-1.342;2023-01-29T10:51:06;101365.26;;;4.49;40.12
63339;BME280;47485;51.378;-1.342;2023-01-29T10:53:45;101371.18;;;3.81;41.87
63339;BME280;47485;51.378;-1.342;2023-01-29T10:56:23;101366.69;;;3.54;42.54
63339;BME280;47485;51.378;-1.342;2023-01-29T10:58:58;101358.69;;;3.13;45.41
63339;BME280;47485;51.378;-1.342;2023-01-29T11:01:27;101353.02;;;2.67;45.69
63339;BME280;47485;51.378;-1.342;2023-01-29T11:03:58;101356.18;;;2.03;46.66
63339;BME280;47485;51.378;-1.342;2023-01-29T11:06:29;101344.51;;;2.52;46.24
63339;BME280;47485;51.378;-1.342;2023-01-29T11:09:02;101340.98;;;0.98;47.61
63339;BME280;47485;51.378;-1.342;2023-01-29T11:11:36;101335.61;;;2.15;45.66
63339;BME280;47485;51.378;-1.342;2023-01-29T11:14:10;101327.66;;;3.10;44.63
63339;BME280;47485;51.378;-1.342;2023-01-29T11:16:40;101320.95;;;1.80;46.66
63339;BME280;47485;51.378;-1.342;2023-01-29T11:19:08;101318.75;;;1.92;44.54
63339;BME280;47485;51.378;-1.342;2023-01-29T11:21:50;101324.07;;;2.10;45.86
63339;BME280;47485;51.378;-1.342;2023-01-29T11:24:17;101313.28;;;2.56;45.75
63339;BME280;47485;51.378;-1.342;2023-01-29T11:26:45;101310.64;;;1.73;46.68
63339;BME280;47485;51.378;-1.342;2023-01-29T11:29:31;101307.28;;;3.26;46.09
63339;BME280;47485;51.378;-1.342;2023-01-29T11:32:03;101301.16;;;4.40;43.95
63339;BME280;47485;51.378;-1.342;2023-01-29T11:34:31;101305.94;;;3.39;44.85
63339;BME280;47485;51.378;-1.342;2023-01-29T11:36:59;101303.31;;;4.13;45.14
63339;BME280;47485;51.378;-1.342;2023-01-29T11:39:27;101293.77;;;3.72;44.88
63339;BME280;47485;51.378;-1.342;2023-01-29T11:41:56;101294.14;;;3.64;45.86
63339;BME280;47485;51.378;-1.342;2023-01-29T11:44:27;101285.41;;;2.23;44.93
63339;BME280;47485;51.378;-1.342;2023-01-29T11:46:55;101284.51;;;2.70;46.21
63339;BME280;47485;51.378;-1.342;2023-01-29T11:49:30;101284.08;;;2.89;46.82
63339;BME280;47485;51.378;-1.342;2023-01-29T11:52:01;101281.60;;;2.28;46.40
63339;BME280;47485;51.378;-1.342;2023-01-29T11:54:33;101280.73;;;2.12;46.72
63339;BME280;47485;51.378;-1.342;2023-01-29T11:57:02;101273.20;;;3.38;46.90
63339;BME280;47485;51.378;-1.342;2023-01-29T11:59:38;101266.57;;;3.53;45.89
63339;BME280;47485;51.378;-1.342;2023-01-29T12:02:20;101263.03;;;2.34;44.86
63339;BME280;47485;51.378;-1.342;2023-01-29T12:04:48;101258.67;;;3.66;44.51
63339;BME280;47485;51.378;-1.342;2023-01-29T12:07:17;101256.83;;;2.71;46.13
63339;BME280;47485;51.378;-1.342;2023-01-29T12:09:52;101251.42;;;4.28;44.19
63339;BME280;47485;51.378;-1.342;2023-01-29T12:12:29;101243.08;;;3.59;43.14
63339;BME280;47485;51.378;-1.342;2023-01-29T12:15:14;101243.57;;;3.87;43.54
63339;BME280;47485;51.378;-1.342;2023-01-29T12:17:46;101239.74;;;4.35;43.04
63339;BME280;47485;51.378;-1.342;2023-01-29T12:20:21;101232.10;;;5.34;41.86
63339;BME280;47485;51.378;-1.342;2023-01-29T12:22:54;101227.72;;;4.82;43.59
63339;BME280;47485;51.378;-1.342;2023-01-29T12:25:28;101215.84;;;2.68;44.94
63339;BME280;47485;51.378;-1.342;2023-01-29T12:28:05;101212.50;;;3.51;44.93
63339;BME280;47485;51.378;-1.342;2023-01-29T12:30:39;101206.54;;;4.04;43.21
63339;BME280;47485;51.378;-1.342;2023-01-29T12:33:13;101203.54;;;4.37;43.37
63339;BME280;47485;51.378;-1.342;2023-01-29T12:35:44;101205.64;;;4.09;46.04
63339;BME280;47485;51.378;-1.342;2023-01-29T12:38:17;101200.50;;;2.38;49.89
63339;BME280;47485;51.378;-1.342;2023-01-29T12:40:47;101197.40;;;3.36;48.50
63339;BME280;47485;51.378;-1.342;2023-01-29T12:43:16;101189.64;;;1.51;50.23
63339;BME280;47485;51.378;-1.342;2023-01-29T12:45:48;101180.61;;;3.68;47.79
63339;BME280;47485;51.378;-1.342;2023-01-29T12:48:20;101178.21;;;1.97;47.89
63339;BME280;47485;51.378;-1.342;2023-01-29T12:50:51;101170.43;;;4.27;45.66
63339;BME280;47485;51.378;-1.342;2023-01-29T12:53:24;101161.07;;;2.71;46.88
63339;BME280;47485;51.378;-1.342;2023-01-29T12:55:55;101158.37;;;4.00;48.20
63339;BME280;47485;51.378;-1.342;2023-01-29T12:58:28;101154.33;;;3.14;48.46
63339;BME280;47485;51.378;-1.342;2023-01-29T13:00:59;101148.27;;;2.04;49.45
63339;BME280;47485;51.378;-1.342;2023-01-29T13:03:33;101142.68;;;2.34;49.33
63339;BME280;47485;51.378;-1.342;2023-01-29T13:06:09;101134.97;;;2.53;48.73
63339;BME280;47485;51.378;-1.342;2023-01-29T13:08:40;101129.23;;;4.14;47.59